Time;durP1;ratioP1;P1;durP2;ratioP2;P2;SDS_P1;SDS_P2;PMS_P1;PMS_P2;Temp;Humidity;BMP_temperature;BMP_pressure;BME280_temperature;BME280_humidity;BME280_pressure;Samples;Min_cycle;Max_cycle;Signal;HPM_P1;HPM_P2
2022/03/14 00:01:15;;;;;;;7.82;5.47;;;;;;;;;;10406699;28;20551;-60
2022/03/14 00:06:17;;;;;;;7.57;5.53;;;;;;;;;;10407317;28;20025;-61
2022/03/14 00:11:17;;;;;;;8.80;5.05;;;;;;;;;;10407156;28;20080;-61
2022/03/14 00:16:30;;;;;;;8.20;5.22;;;;;;;;;;10402953;28;20112;-61
2022/03/14 00:21:30;;;;;;;8.77;5.50;;;;;;;;;;10405606;28;20045;-61
2022/03/14 00:26:31;;;;;;;8.02;5.03;;;;;;;;;;10400095;28;20029;-61
2022/03/14 00:31:31;;;;;;;8.03;5.20;;;;;;;;;;10405318;28;20026;-61
2022/03/14 00:36:32;;;;;;;7.95;5.65;;;;;;;;;;10403709;28;20803;-61
2022/03/14 00:41:32;;;;;;;8.73;5.35;;;;;;;;;;10405687;28;20520;-61
2022/03/14 00:46:35;;;;;;;5.97;4.77;;;;;;;;;;10401069;28;20033;-61
2022/03/14 00:51:35;;;;;;;6.63;4.80;;;;;;;;;;10404975;28;20572;-61
2022/03/14 00:56:36;;;;;;;10.95;5.60;;;;;;;;;;10398887;28;20548;-61
2022/03/14 01:01:36;;;;;;;7.35;5.30;;;;;;;;;;10403232;28;20105;-61
2022/03/14 01:06:36;;;;;;;7.57;5.40;;;;;;;;;;10394166;28;20037;-61
2022/03/14 01:11:38;;;;;;;6.87;5.20;;;;;;;;;;10403246;28;20123;-61
2022/03/14 01:16:40;;;;;;;9.27;5.38;;;;;;;;;;10401239;28;21051;-61
2022/03/14 01:21:41;;;;;;;6.93;4.95;;;;;;;;;;10402780;28;20116;-61
2022/03/14 01:26:41;;;;;;;8.80;5.18;;;;;;;;;;10402202;28;20037;-61
2022/03/14 01:31:42;;;;;;;7.20;4.93;;;;;;;;;;10404868;28;20029;-61
2022/03/14 01:36:42;;;;;;;6.80;4.93;;;;;;;;;;10390878;28;20034;-61
2022/03/14 01:41:43;;;;;;;7.03;5.40;;;;;;;;;;10404590;28;20532;-61
2022/03/14 01:46:43;;;;;;;6.28;4.70;;;;;;;;;;10390915;28;20084;-61
2022/03/14 01:51:44;;;;;;;8.32;4.90;;;;;;;;;;10401466;28;20385;-61
2022/03/14 01:56:45;;;;;;;7.75;5.18;;;;;;;;;;10405708;28;20033;-61
2022/03/14 02:01:45;;;;;;;6.25;4.68;;;;;;;;;;10406203;28;20108;-61
2022/03/14 02:06:46;;;;;;;6.00;4.90;;;;;;;;;;10384095;28;20036;-61
2022/03/14 02:11:56;;;;;;;5.75;4.78;;;;;;;;;;10388756;28;20570;-61
2022/03/14 02:16:56;;;;;;;8.43;4.72;;;;;;;;;;10399052;28;20170;-61
2022/03/14 02:21:56;;;;;;;5.85;4.60;;;;;;;;;;10403345;28;20604;-61
2022/03/14 02:26:57;;;;;;;7.45;5.10;;;;;;;;;;10392523;28;20021;-61
2022/03/14 02:31:58;;;;;;;7.07;4.65;;;;;;;;;;10396375;28;20025;-61
2022/03/14 02:36:58;;;;;;;6.43;4.93;;;;;;;;;;10392159;28;20047;-61
2022/03/14 02:42:00;;;;;;;8.27;4.95;;;;;;;;;;10404464;28;20030;-61
2022/03/14 02:47:04;;;;;;;5.55;4.78;;;;;;;;;;10400815;28;20055;-61
2022/03/14 02:52:05;;;;;;;6.10;4.30;;;;;;;;;;10402281;28;20029;-61
2022/03/14 02:57:08;;;;;;;6.82;4.85;;;;;;;;;;10396647;28;20030;-61
2022/03/14 03:02:10;;;;;;;5.20;4.35;;;;;;;;;;10396108;28;20121;-61
2022/03/14 03:07:10;;;;;;;5.65;4.50;;;;;;;;;;10393974;28;20026;-61
2022/03/14 03:12:14;;;;;;;5.63;4.37;;;;;;;;;;10391247;28;20033;-61
2022/03/14 03:17:15;;;;;;;5.97;4.50;;;;;;;;;;10368780;28;20111;-61
2022/03/14 03:22:16;;;;;;;5.25;4.43;;;;;;;;;;10397443;28;20376;-61
2022/03/14 03:27:16;;;;;;;5.40;4.20;;;;;;;;;;10391740;28;20029;-61
2022/03/14 03:32:17;;;;;;;6.43;4.70;;;;;;;;;;10401007;28;20025;-61
2022/03/14 03:37:17;;;;;;;5.55;4.40;;;;;;;;;;10398139;28;20471;-61
2022/03/14 03:42:18;;;;;;;4.80;4.20;;;;;;;;;;10399860;28;20381;-61
2022/03/14 03:47:18;;;;;;;5.10;4.10;;;;;;;;;;10398045;28;20037;-61
2022/03/14 03:52:18;;;;;;;6.87;4.70;;;;;;;;;;10402273;28;21057;-61
2022/03/14 03:57:19;;;;;;;5.18;4.18;;;;;;;;;;10393346;28;20462;-61
2022/03/14 04:02:19;;;;;;;5.47;4.17;;;;;;;;;;10400469;28;20025;-61
2022/03/14 04:07:23;;;;;;;6.43;4.70;;;;;;;;;;10393876;28;20489;-61
2022/03/14 04:12:25;;;;;;;7.07;4.25;;;;;;;;;;10408733;28;20478;-61
2022/03/14 04:17:27;;;;;;;8.07;4.47;;;;;;;;;;10385650;28;20029;-61
2022/03/14 04:22:28;;;;;;;7.13;4.00;;;;;;;;;;10410658;28;20380;-61
2022/03/14 04:27:28;;;;;;;4.28;3.75;;;;;;;;;;10392267;28;20033;-61
2022/03/14 04:32:29;;;;;;;6.30;3.83;;;;;;;;;;10410072;28;20029;-61
2022/03/14 04:37:29;;;;;;;12.98;4.10;;;;;;;;;;10405437;28;20462;-61
2022/03/14 04:42:30;;;;;;;5.70;3.67;;;;;;;;;;10409410;28;20396;-61
2022/03/14 04:47:30;;;;;;;4.50;3.63;;;;;;;;;;10406336;28;20462;-61
2022/03/14 04:52:30;;;;;;;4.73;3.57;;;;;;;;;;10403537;28;20180;-61
2022/03/14 04:57:31;;;;;;;4.43;4.03;;;;;;;;;;10407383;28;20466;-61
2022/03/14 05:02:31;;;;;;;5.72;3.97;;;;;;;;;;10400423;28;20025;-61
2022/03/14 05:07:31;;;;;;;5.53;3.83;;;;;;;;;;10406199;28;20491;-61
2022/03/14 05:12:33;;;;;;;4.67;4.17;;;;;;;;;;10402341;28;20486;-61
2022/03/14 05:17:34;;;;;;;4.07;3.70;;;;;;;;;;10406861;28;20478;-61
2022/03/14 05:22:43;;;;;;;4.35;3.83;;;;;;;;;;10400030;28;20049;-61
2022/03/14 05:27:44;;;;;;;5.82;3.92;;;;;;;;;;10395210;28;20088;-61
2022/03/14 05:32:44;;;;;;;4.13;3.45;;;;;;;;;;10397758;28;20545;-61
2022/03/14 05:37:46;;;;;;;4.10;3.70;;;;;;;;;;10401767;28;20033;-61
2022/03/14 05:42:48;;;;;;;5.28;3.65;;;;;;;;;;10403537;28;20486;-61
2022/03/14 05:47:49;;;;;;;5.13;3.88;;;;;;;;;;10400254;28;20029;-61
2022/03/14 05:52:52;;;;;;;4.80;3.67;;;;;;;;;;10403384;28;20029;-61
2022/03/14 05:57:53;;;;;;;5.05;3.45;;;;;;;;;;10399539;28;20039;-61
2022/03/14 06:02:53;;;;;;;4.47;3.90;;;;;;;;;;10402719;28;20039;-61
2022/03/14 06:07:54;;;;;;;4.82;3.50;;;;;;;;;;10397911;28;20438;-61
2022/03/14 06:12:54;;;;;;;4.95;3.65;;;;;;;;;;10402999;28;20025;-61
2022/03/14 06:17:55;;;;;;;5.68;4.00;;;;;;;;;;10399380;28;20038;-61
2022/03/14 06:22:55;;;;;;;4.60;3.60;;;;;;;;;;10400145;28;20380;-61
2022/03/14 06:27:56;;;;;;;4.80;3.53;;;;;;;;;;10393829;28;20753;-61
2022/03/14 06:32:56;;;;;;;4.03;3.63;;;;;;;;;;10382119;28;20463;-61
2022/03/14 06:37:56;;;;;;;4.28;3.55;;;;;;;;;;10400118;28;20029;-61
2022/03/14 06:42:57;;;;;;;3.70;3.07;;;;;;;;;;10402743;28;20029;-61
2022/03/14 06:47:58;;;;;;;3.90;3.50;;;;;;;;;;10395916;28;21084;-61
2022/03/14 06:52:59;;;;;;;4.38;3.50;;;;;;;;;;10398162;28;20408;-62
2022/03/14 06:57:59;;;;;;;5.95;3.67;;;;;;;;;;10397515;28;20391;-61
2022/03/14 07:03:00;;;;;;;3.90;3.28;;;;;;;;;;10387571;28;20484;-61
2022/03/14 07:08:00;;;;;;;3.57;3.27;;;;;;;;;;10388340;28;20037;-62
2022/03/14 07:13:00;;;;;;;3.77;3.17;;;;;;;;;;10396543;28;20511;-61
2022/03/14 07:18:01;;;;;;;3.67;3.17;;;;;;;;;;10389934;28;20049;-61
2022/03/14 07:23:02;;;;;;;3.87;3.47;;;;;;;;;;10398402;28;20128;-61
2022/03/14 07:28:05;;;;;;;3.47;3.17;;;;;;;;;;10390885;28;20030;-61
2022/03/14 07:33:05;;;;;;;3.25;2.85;;;;;;;;;;10381635;28;20799;-63
2022/03/14 07:38:06;;;;;;;10.00;4.00;;;;;;;;;;10392016;28;20121;-64
2022/03/14 07:43:06;;;;;;;8.57;4.40;;;;;;;;;;10386597;28;20021;-65
2022/03/14 07:48:07;;;;;;;13.73;4.73;;;;;;;;;;10409095;28;20027;-64
2022/03/14 07:53:08;;;;;;;15.77;4.70;;;;;;;;;;10402307;28;20839;-64
2022/03/14 07:58:08;;;;;;;12.65;4.25;;;;;;;;;;10379674;28;20044;-64
2022/03/14 08:03:09;;;;;;;10.17;4.23;;;;;;;;;;10400904;28;20504;-64
2022/03/14 08:08:09;;;;;;;11.23;4.65;;;;;;;;;;10407658;28;20455;-64
2022/03/14 08:13:10;;;;;;;6.63;4.35;;;;;;;;;;10401498;28;20075;-63
2022/03/14 08:18:10;;;;;;;7.43;4.30;;;;;;;;;;10398995;28;20046;-63
2022/03/14 08:23:10;;;;;;;9.65;3.90;;;;;;;;;;10403542;28;20035;-59
2022/03/14 08:28:11;;;;;;;7.47;4.47;;;;;;;;;;10409362;28;20516;-60
2022/03/14 08:33:11;;;;;;;13.27;4.70;;;;;;;;;;10400741;28;20552;-64
2022/03/14 08:38:13;;;;;;;17.73;4.85;;;;;;;;;;10396239;28;20373;-64
2022/03/14 08:43:14;;;;;;;9.23;4.47;;;;;;;;;;10390715;28;20460;-64
2022/03/14 08:48:14;;;;;;;8.82;4.40;;;;;;;;;;10391918;28;20029;-63
2022/03/14 08:53:16;;;;;;;6.53;4.13;;;;;;;;;;10396471;28;20044;-62
2022/03/14 08:58:16;;;;;;;9.93;4.05;;;;;;;;;;10402428;28;20061;-65
2022/03/14 09:03:17;;;;;;;11.27;4.95;;;;;;;;;;10372023;28;20092;-63
2022/03/14 09:08:18;;;;;;;7.07;4.13;;;;;;;;;;10386770;28;20048;-62
2022/03/14 09:13:19;;;;;;;11.27;4.63;;;;;;;;;;10399147;28;20467;-62
2022/03/14 09:18:20;;;;;;;18.27;12.32;;;;;;;;;;10389796;28;20081;-63
2022/03/14 09:23:21;;;;;;;37.20;20.52;;;;;;;;;;10383063;28;20295;-62
2022/03/14 09:28:21;;;;;;;48.53;26.05;;;;;;;;;;10379400;28;20242;-61
2022/03/14 09:33:22;;;;;;;63.57;34.43;;;;;;;;;;10398069;28;20029;-63
2022/03/14 09:38:22;;;;;;;61.53;34.67;;;;;;;;;;10383474;28;20470;-61
2022/03/14 09:43:24;;;;;;;58.42;31.92;;;;;;;;;;10396669;28;20466;-62
2022/03/14 09:48:25;;;;;;;51.30;29.30;;;;;;;;;;10389240;28;20042;-63
2022/03/14 09:53:25;;;;;;;51.63;30.85;;;;;;;;;;10377948;28;20064;-61
2022/03/14 09:58:26;;;;;;;49.83;30.88;;;;;;;;;;10395097;28;20413;-60
2022/03/14 10:03:26;;;;;;;62.80;36.75;;;;;;;;;;10402079;28;20030;-62
2022/03/14 10:08:27;;;;;;;60.90;37.43;;;;;;;;;;10398054;28;20033;-62
2022/03/14 10:13:27;;;;;;;59.50;36.87;;;;;;;;;;10401831;28;20452;-62
2022/03/14 10:18:27;;;;;;;74.97;41.60;;;;;;;;;;10399297;28;20417;-62
2022/03/14 10:23:46;;;;;;;67.72;41.17;;;;;;;;;;10394562;28;20486;-63
2022/03/14 10:28:50;;;;;;;75.55;45.13;;;;;;;;;;10399278;28;20104;-63
2022/03/14 10:33:52;;;;;;;74.75;45.30;;;;;;;;;;10401418;28;20377;-64
2022/03/14 10:38:53;;;;;;;77.00;47.33;;;;;;;;;;10380301;28;20033;-63
2022/03/14 10:43:53;;;;;;;84.75;49.33;;;;;;;;;;10390839;28;20029;-63
2022/03/14 10:48:54;;;;;;;87.18;50.55;;;;;;;;;;10399715;28;20048;-62
2022/03/14 10:53:54;;;;;;;82.35;50.80;;;;;;;;;;10390861;28;20033;-63
2022/03/14 10:58:56;;;;;;;81.77;48.63;;;;;;;;;;10396466;28;20025;-63
2022/03/14 11:03:58;;;;;;;81.88;48.00;;;;;;;;;;10400977;28;20033;-64
2022/03/14 11:08:59;;;;;;;81.88;49.33;;;;;;;;;;10392028;28;20397;-64
2022/03/14 11:13:59;;;;;;;85.07;49.60;;;;;;;;;;10403058;28;20977;-63
2022/03/14 11:19:01;;;;;;;81.87;48.90;;;;;;;;;;10402507;28;20038;-61
2022/03/14 11:24:01;;;;;;;88.82;49.78;;;;;;;;;;10374164;28;20112;-62
2022/03/14 11:29:02;;;;;;;91.60;54.05;;;;;;;;;;10394578;28;20026;-61
2022/03/14 11:34:03;;;;;;;88.13;50.70;;;;;;;;;;10396527;28;20648;-61
2022/03/14 11:39:03;;;;;;;93.13;53.45;;;;;;;;;;10384953;28;20048;-63
2022/03/14 11:44:06;;;;;;;94.63;54.20;;;;;;;;;;10365596;28;20048;-66
2022/03/14 11:49:28;;;;;;;85.22;52.08;;;;;;;;;;10393830;28;20038;-62
2022/03/14 11:54:37;;;;;;;86.22;53.05;;;;;;;;;;10387959;28;20092;-62
2022/03/14 11:59:37;;;;;;;88.55;55.15;;;;;;;;;;10389969;28;20080;-63
2022/03/14 12:04:39;;;;;;;95.13;59.72;;;;;;;;;;10378213;28;20037;-61
2022/03/14 12:09:45;;;;;;;87.93;54.35;;;;;;;;;;10378097;28;20030;-62
2022/03/14 12:14:47;;;;;;;96.60;58.65;;;;;;;;;;10380580;28;20101;-62
2022/03/14 12:20:18;;;;;;;91.70;57.88;;;;;;;;;;10379262;28;20038;-61
2022/03/14 12:25:39;;;;;;;95.85;59.75;;;;;;;;;;10373472;28;20064;-61
2022/03/14 12:30:39;;;;;;;92.43;59.55;;;;;;;;;;10381395;28;20464;-63
2022/03/14 12:35:40;;;;;;;95.90;62.47;;;;;;;;;;10367459;28;20108;-62
2022/03/14 12:40:56;;;;;;;101.38;64.07;;;;;;;;;;10388084;28;20030;-62
2022/03/14 12:45:59;;;;;;;100.35;63.38;;;;;;;;;;10393452;28;20033;-61
2022/03/14 12:51:07;;;;;;;105.95;64.82;;;;;;;;;;10399298;28;20049;-62
2022/03/14 12:56:12;;;;;;;105.27;69.03;;;;;;;;;;10404497;28;20025;-61
2022/03/14 13:01:12;;;;;;;103.70;65.03;;;;;;;;;;10383333;28;20033;-62
2022/03/14 13:06:14;;;;;;;95.70;61.65;;;;;;;;;;10389962;28;20499;-63
2022/03/14 13:11:15;;;;;;;105.32;67.15;;;;;;;;;;10398500;28;20503;-63
2022/03/14 13:16:21;;;;;;;109.28;69.35;;;;;;;;;;10402598;28;21405;-63
2022/03/14 13:21:27;;;;;;;111.70;69.00;;;;;;;;;;10393391;28;20045;-63
2022/03/14 13:26:31;;;;;;;114.82;71.18;;;;;;;;;;10394312;28;20034;-63
2022/03/14 13:31:33;;;;;;;106.68;69.13;;;;;;;;;;10395554;28;20080;-62
2022/03/14 13:36:41;;;;;;;104.05;57.40;;;;;;;;;;10385479;28;20057;-62
2022/03/14 13:41:45;;;;;;;93.03;59.33;;;;;;;;;;10392239;28;20240;-61
2022/03/14 13:46:49;;;;;;;93.28;57.42;;;;;;;;;;10393916;28;20053;-61
2022/03/14 13:52:01;;;;;;;91.35;57.42;;;;;;;;;;10389128;28;20092;-62
2022/03/14 13:57:07;;;;;;;85.32;53.20;;;;;;;;;;10387060;28;52864;-63
2022/03/14 14:02:32;;;;;;;75.95;45.42;;;;;;;;;;10395017;28;20094;-64
2022/03/14 14:08:31;;;;;;;81.05;46.50;;;;;;;;;;10383613;28;313051;-47
2022/03/14 14:13:50;;;;;;;78.70;46.85;;;;;;;;;;10371747;28;20046;-49
2022/03/14 14:19:11;;;;;;;77.47;47.10;;;;;;;;;;10419132;28;20044;-50
2022/03/14 14:24:11;;;;;;;70.35;44.60;;;;;;;;;;10387397;28;20469;-48
2022/03/14 14:29:44;;;;;;;73.03;45.17;;;;;;;;;;10377993;28;20021;-44
2022/03/14 16:38:46;;;;;;;26.48;16.20;;;;;;;;;;10533483;27;20622;-45
2022/03/14 16:43:48;;;;;;;26.73;16.85;;;;;;;;;;10496358;28;20036;-55
2022/03/14 16:48:49;;;;;;;23.83;15.13;;;;;;;;;;10491102;28;49922;-62
2022/03/14 16:53:50;;;;;;;24.23;15.45;;;;;;;;;;10485255;28;20047;-57
2022/03/14 16:58:50;;;;;;;23.40;14.75;;;;;;;;;;10472219;28;20029;-48
2022/03/14 17:03:51;;;;;;;19.45;13.90;;;;;;;;;;10480789;28;20032;-52
2022/03/14 17:08:52;;;;;;;22.27;14.65;;;;;;;;;;10481752;28;20032;-57
2022/03/14 17:13:52;;;;;;;24.25;13.70;;;;;;;;;;10481366;28;20028;-57
2022/03/14 17:18:53;;;;;;;21.80;14.40;;;;;;;;;;10474828;28;20217;-62
2022/03/14 17:23:53;;;;;;;20.23;13.77;;;;;;;;;;10485704;28;20082;-63
2022/03/14 17:28:54;;;;;;;19.80;13.20;;;;;;;;;;10482049;28;20044;-56
2022/03/14 17:33:55;;;;;;;20.63;13.73;;;;;;;;;;10466784;28;20111;-43
2022/03/14 17:38:55;;;;;;;22.38;13.27;;;;;;;;;;10476105;28;20414;-44
2022/03/14 17:43:56;;;;;;;24.48;13.02;;;;;;;;;;10474801;28;53364;-42
2022/03/14 17:48:57;;;;;;;18.92;13.38;;;;;;;;;;10463239;28;20195;-43
2022/03/14 17:53:57;;;;;;;16.98;12.52;;;;;;;;;;10459970;28;20032;-42
2022/03/14 17:59:01;;;;;;;21.45;13.43;;;;;;;;;;10463154;28;20040;-44
2022/03/14 18:04:02;;;;;;;23.45;13.30;;;;;;;;;;10469077;28;20107;-44
2022/03/14 18:09:03;;;;;;;22.23;12.55;;;;;;;;;;10469750;28;20115;-42
2022/03/14 18:14:04;;;;;;;22.42;13.35;;;;;;;;;;10471777;28;20086;-60
2022/03/14 18:19:05;;;;;;;18.50;12.55;;;;;;;;;;10448625;28;20099;-55
2022/03/14 18:24:06;;;;;;;23.90;12.75;;;;;;;;;;10436148;28;20044;-59
2022/03/14 18:29:07;;;;;;;16.88;11.68;;;;;;;;;;10435665;28;20033;-43
2022/03/14 18:34:23;;;;;;;14.95;11.88;;;;;;;;;;10436616;28;20640;-56
2022/03/14 18:39:24;;;;;;;19.17;12.35;;;;;;;;;;10423291;28;20031;-61
2022/03/14 18:44:25;;;;;;;20.80;11.73;;;;;;;;;;10430341;28;20056;-59
2022/03/14 18:49:26;;;;;;;17.00;11.10;;;;;;;;;;10442883;28;20108;-60
2022/03/14 18:54:27;;;;;;;20.20;12.15;;;;;;;;;;10434970;28;20079;-55
2022/03/14 18:59:28;;;;;;;23.58;11.60;;;;;;;;;;10438259;28;20040;-54
2022/03/14 19:04:29;;;;;;;15.40;11.45;;;;;;;;;;10442689;28;20091;-59
2022/03/14 19:09:30;;;;;;;15.13;11.43;;;;;;;;;;10421564;28;20025;-62
2022/03/14 19:14:30;;;;;;;18.23;10.98;;;;;;;;;;10417331;28;20021;-56
2022/03/14 19:19:32;;;;;;;17.80;10.60;;;;;;;;;;10394777;28;20081;-61
2022/03/14 19:24:34;;;;;;;13.05;10.57;;;;;;;;;;10386695;28;20034;-56
2022/03/14 19:29:34;;;;;;;12.95;10.32;;;;;;;;;;10389407;28;20366;-57
2022/03/14 19:34:35;;;;;;;16.48;10.23;;;;;;;;;;10388199;28;20033;-62
2022/03/14 19:39:36;;;;;;;14.48;10.15;;;;;;;;;;10383743;28;20042;-59
2022/03/14 19:44:38;;;;;;;15.65;11.13;;;;;;;;;;10378287;28;20045;-61
2022/03/14 19:49:39;;;;;;;15.70;10.13;;;;;;;;;;10411257;28;20041;-60
2022/03/14 19:54:39;;;;;;;15.32;10.63;;;;;;;;;;10397677;28;20116;-57
2022/03/14 19:59:40;;;;;;;13.75;9.57;;;;;;;;;;10395049;28;20037;-59
2022/03/14 20:04:42;;;;;;;12.70;9.77;;;;;;;;;;10398850;28;20025;-53
2022/03/14 20:09:42;;;;;;;12.00;9.65;;;;;;;;;;10403247;28;20021;-58
2022/03/14 20:14:43;;;;;;;14.27;9.27;;;;;;;;;;10403688;28;20022;-61
2022/03/14 20:19:48;;;;;;;13.77;9.65;;;;;;;;;;10395430;28;20036;-59
2022/03/14 20:24:52;;;;;;;12.27;9.38;;;;;;;;;;10383519;28;20050;-61
2022/03/14 20:29:53;;;;;;;14.38;9.68;;;;;;;;;;10399156;28;20044;-61
2022/03/14 20:34:54;;;;;;;14.73;9.60;;;;;;;;;;10411533;28;20044;-62
2022/03/14 20:39:55;;;;;;;14.13;9.00;;;;;;;;;;10401628;28;20052;-55
2022/03/14 20:44:56;;;;;;;14.50;9.48;;;;;;;;;;10407370;28;20033;-61
2022/03/14 20:49:57;;;;;;;11.35;8.70;;;;;;;;;;10403583;28;20037;-62
2022/03/14 20:54:58;;;;;;;14.30;9.25;;;;;;;;;;10393983;28;20141;-62
2022/03/14 20:59:59;;;;;;;11.20;8.43;;;;;;;;;;10408687;28;20108;-62
2022/03/14 21:05:00;;;;;;;13.63;8.48;;;;;;;;;;10412195;28;20325;-61
2022/03/14 21:10:00;;;;;;;11.75;9.25;;;;;;;;;;10408795;28;20108;-62
2022/03/14 21:15:01;;;;;;;12.63;8.68;;;;;;;;;;10409217;28;20514;-56
2022/03/14 21:20:03;;;;;;;11.32;8.88;;;;;;;;;;10413573;28;20151;-49
2022/03/14 21:25:04;;;;;;;12.45;9.23;;;;;;;;;;10404254;28;20190;-55
2022/03/14 21:30:14;;;;;;;11.40;8.38;;;;;;;;;;10408216;28;20519;-53
2022/03/14 21:35:18;;;;;;;10.23;7.63;;;;;;;;;;10419253;28;20037;-60
2022/03/14 21:40:20;;;;;;;12.43;8.55;;;;;;;;;;10401586;28;20029;-63
2022/03/14 21:45:22;;;;;;;9.68;7.75;;;;;;;;;;10410399;28;20099;-57
2022/03/14 21:50:23;;;;;;;9.95;8.05;;;;;;;;;;10410647;28;20072;-53
2022/03/14 21:55:24;;;;;;;10.18;7.70;;;;;;;;;;10407127;28;20127;-58
2022/03/14 22:00:25;;;;;;;11.32;7.50;;;;;;;;;;10400185;28;20033;-57
2022/03/14 22:05:26;;;;;;;9.80;7.90;;;;;;;;;;10408252;28;20045;-55
2022/03/14 22:10:27;;;;;;;12.10;8.75;;;;;;;;;;10400015;28;20087;-58
2022/03/14 22:15:27;;;;;;;10.20;7.68;;;;;;;;;;10402081;28;20096;-56
2022/03/14 22:20:28;;;;;;;9.55;7.50;;;;;;;;;;10407833;28;20075;-56
2022/03/14 22:25:29;;;;;;;10.23;7.45;;;;;;;;;;10401977;28;20029;-59
2022/03/14 22:30:30;;;;;;;11.88;7.93;;;;;;;;;;10411269;28;20060;-49
2022/03/14 22:35:31;;;;;;;12.27;7.90;;;;;;;;;;10386179;28;20289;-53
2022/03/14 22:40:32;;;;;;;8.65;7.00;;;;;;;;;;10390207;28;20029;-61
2022/03/14 22:45:32;;;;;;;10.27;7.18;;;;;;;;;;10386934;28;20662;-55
2022/03/14 22:50:34;;;;;;;14.20;7.13;;;;;;;;;;10415445;28;20460;-56
2022/03/14 22:55:36;;;;;;;9.10;7.07;;;;;;;;;;10413389;28;20534;-56
2022/03/14 23:00:41;;;;;;;9.75;6.82;;;;;;;;;;10420724;28;20040;-56
2022/03/14 23:05:41;;;;;;;10.13;7.40;;;;;;;;;;10456978;28;20499;-57
2022/03/14 23:16:02;;;;;;;10.48;7.35;;;;;;;;;;10447326;28;20484;-43
2022/03/14 23:21:04;;;;;;;11.90;8.07;;;;;;;;;;10456312;28;20037;-43
2022/03/14 23:26:07;;;;;;;8.98;7.35;;;;;;;;;;10449849;28;20121;-43
2022/03/14 23:31:08;;;;;;;10.27;7.40;;;;;;;;;;10459910;28;20028;-43
2022/03/14 23:36:09;;;;;;;8.90;6.65;;;;;;;;;;10451391;28;20053;-43
2022/03/14 23:41:11;;;;;;;11.65;7.68;;;;;;;;;;10453767;28;20028;-43
2022/03/14 23:46:12;;;;;;;9.32;7.03;;;;;;;;;;10443189;28;20029;-43
2022/03/14 23:51:13;;;;;;;7.97;6.60;;;;;;;;;;10433914;28;20032;-43
2022/03/14 23:56:16;;;;;;;8.68;6.47;;;;;;;;;;10459024;28;20110;-43
